createdAt,value
2023-02-25T00:02:04.437Z,99506.38
2023-02-25T00:04:31.392Z,99519.09
2023-02-25T00:06:57.902Z,99514.47
2023-02-25T00:09:24.316Z,99514.47
2023-02-25T00:11:50.813Z,99519.59
2023-02-25T00:14:17.201Z,99513.75
2023-02-25T00:16:43.649Z,99510.72
2023-02-25T00:19:10.537Z,99511.78
2023-02-25T00:21:38.057Z,99513.97
2023-02-25T00:24:15.975Z,99505.00
2023-02-25T00:26:43.653Z,99504.16
2023-02-25T00:29:10.176Z,99512.50
2023-02-25T00:31:36.682Z,99520.59
2023-02-25T00:34:03.453Z,99528.91
2023-02-25T00:36:32.132Z,99519.25
2023-02-25T00:38:58.600Z,99522.75
2023-02-25T00:41:28.197Z,99523.03
2023-02-25T00:43:57.649Z,99527.81
2023-02-25T00:46:24.700Z,99532.06
2023-02-25T00:48:52.348Z,99528.88
2023-02-25T00:51:21.821Z,99533.94
2023-02-25T00:53:50.051Z,99542.81
2023-02-25T00:56:17.849Z,99545.25
2023-02-25T00:58:46.420Z,99554.94
2023-02-25T01:01:23.823Z,99555.53
2023-02-25T01:03:52.011Z,99552.53
2023-02-25T01:06:18.857Z,99577.78
2023-02-25T01:08:45.452Z,99568.31
2023-02-25T01:11:27.460Z,99575.56
2023-02-25T01:13:55.516Z,99575.81
2023-02-25T01:16:24.887Z,99575.00
2023-02-25T01:18:53.454Z,99575.38
2023-02-25T01:21:42.727Z,99565.13
2023-02-25T01:24:17.347Z,99569.91
2023-02-25T01:26:45.529Z,99574.94
2023-02-25T01:29:40.279Z,99573.28
2023-02-25T01:32:11.952Z,99583.19
2023-02-25T01:34:39.926Z,99587.50
2023-02-25T01:37:08.150Z,99589.41
2023-02-25T01:39:40.156Z,99589.13
2023-02-25T01:42:14.369Z,99599.31
2023-02-25T01:45:09.101Z,99587.88
2023-02-25T01:47:39.264Z,99600.13
2023-02-25T01:50:07.136Z,99598.84
2023-02-25T01:52:33.830Z,99606.59
2023-02-25T01:55:00.275Z,99607.59
2023-02-25T01:57:28.052Z,99610.09
2023-02-25T01:59:55.219Z,99607.72
2023-02-25T02:02:26.089Z,99614.91
2023-02-25T02:04:54.395Z,99604.97
2023-02-25T02:07:23.269Z,99618.16
2023-02-25T02:09:59.848Z,99609.53
2023-02-25T02:12:31.352Z,99622.66
2023-02-25T02:15:00.055Z,99631.28
2023-02-25T02:17:37.903Z,99637.97
2023-02-25T02:20:23.090Z,99636.41
2023-02-25T02:23:04.931Z,99625.59
2023-02-25T02:25:52.953Z,99639.31
2023-02-25T02:28:50.657Z,99635.34
2023-02-25T02:31:20.251Z,99655.19
2023-02-25T02:34:16.651Z,99641.00
2023-02-25T02:37:18.567Z,99636.44
2023-02-25T02:40:14.262Z,99635.91
2023-02-25T02:43:08.666Z,99636.19
2023-02-25T02:45:55.530Z,99638.63
2023-02-25T02:48:27.850Z,99644.00
2023-02-25T02:50:59.899Z,99661.13
2023-02-25T02:53:36.624Z,99649.88
2023-02-25T02:56:07.291Z,99652.38
2023-02-25T02:58:45.819Z,99645.63
2023-02-25T03:01:16.046Z,99645.06
2023-02-25T03:03:48.736Z,99655.25
2023-02-25T03:06:19.855Z,99666.53
2023-02-25T03:08:56.727Z,99660.88
2023-02-25T03:11:23.556Z,99657.69
2023-02-25T03:13:51.858Z,99664.63
2023-02-25T03:16:31.870Z,99646.13
2023-02-25T03:19:12.298Z,99648.78
2023-02-25T03:21:43.663Z,99660.25
2023-02-25T03:24:22.231Z,99670.94
2023-02-25T03:26:51.555Z,99666.44
2023-02-25T03:29:21.925Z,99672.88
2023-02-25T03:31:56.927Z,99676.13
2023-02-25T03:34:35.989Z,99685.66
2023-02-25T03:37:09.279Z,99686.72
2023-02-25T03:39:40.953Z,99686.16
2023-02-25T03:42:14.074Z,99692.03
2023-02-25T03:44:50.079Z,99695.53
2023-02-25T03:47:19.367Z,99705.72
2023-02-25T03:50:05.099Z,99704.56
2023-02-25T03:52:32.302Z,99709.56
2023-02-25T03:55:05.906Z,99707.91
2023-02-25T03:57:41.211Z,99719.13
2023-02-25T04:00:19.145Z,99719.44
2023-02-25T04:02:46.888Z,99731.97
2023-02-25T04:05:14.697Z,99734.91
2023-02-25T04:07:41.397Z,99728.22
2023-02-25T04:10:09.681Z,99732.38
2023-02-25T04:12:36.111Z,99729.19
2023-02-25T04:15:04.008Z,99737.44
2023-02-25T04:17:30.523Z,99739.53
2023-02-25T04:19:57.033Z,99739.94
2023-02-25T04:22:24.120Z,99749.03
2023-02-25T04:24:50.569Z,99755.44
2023-02-25T04:27:17.324Z,99772.63
2023-02-25T04:29:44.520Z,99766.44
2023-02-25T04:32:12.001Z,99761.31
2023-02-25T04:34:38.494Z,99771.56
2023-02-25T04:37:05.277Z,99770.81
2023-02-25T04:39:32.958Z,99762.69
2023-02-25T04:41:59.372Z,99771.63
2023-02-25T04:44:26.140Z,99773.38
2023-02-25T04:46:52.602Z,99769.72
2023-02-25T04:49:21.364Z,99772.56
2023-02-25T04:51:49.463Z,99766.06
2023-02-25T04:54:15.906Z,99770.88
2023-02-25T04:56:42.291Z,99761.59
2023-02-25T04:59:11.256Z,99770.22
2023-02-25T05:01:38.569Z,99774.22
2023-02-25T05:04:05.331Z,99763.72
2023-02-25T05:06:32.005Z,99768.28
2023-02-25T05:08:58.849Z,99765.53
2023-02-25T05:11:27.358Z,99759.66
2023-02-25T05:13:57.067Z,99768.34
2023-02-25T05:16:24.144Z,99770.47
2023-02-25T05:18:50.769Z,99767.31
2023-02-25T05:21:20.999Z,99776.88
2023-02-25T05:23:49.115Z,99767.47
2023-02-25T05:26:18.115Z,99771.69
2023-02-25T05:28:44.581Z,99772.75
2023-02-25T05:31:12.608Z,99779.66
2023-02-25T05:33:40.053Z,99784.16
2023-02-25T05:36:08.203Z,99779.91
2023-02-25T05:38:35.275Z,99779.75
2023-02-25T05:41:05.909Z,99788.09
2023-02-25T05:43:33.012Z,99780.94
2023-02-25T05:46:03.136Z,99791.84
2023-02-25T05:48:31.659Z,99793.56
2023-02-25T05:51:12.997Z,99797.06
2023-02-25T05:53:39.742Z,99808.63
2023-02-25T05:56:08.320Z,99811.38
2023-02-25T05:58:35.331Z,99807.97
2023-02-25T06:01:16.859Z,99820.06
2023-02-25T06:03:45.282Z,99824.47
2023-02-25T06:06:14.755Z,99833.56
2023-02-25T06:08:44.167Z,99838.38
2023-02-25T06:11:14.231Z,99859.34
2023-02-25T06:13:41.888Z,99844.88
2023-02-25T06:16:08.433Z,99854.88
2023-02-25T06:18:37.077Z,99851.63
2023-02-25T06:21:09.770Z,99854.94
2023-02-25T06:23:38.433Z,99860.31
2023-02-25T06:26:07.763Z,99869.69
2023-02-25T06:28:38.126Z,99877.16
2023-02-25T06:31:08.758Z,99882.50
2023-02-25T06:33:35.698Z,99879.50
2023-02-25T06:36:02.649Z,99884.56
2023-02-25T06:38:29.207Z,99891.47
2023-02-25T06:40:55.730Z,99899.00
2023-02-25T06:43:22.150Z,99894.31
2023-02-25T06:45:48.641Z,99898.44
2023-02-25T06:48:15.083Z,99900.47
2023-02-25T06:50:41.885Z,99903.25
2023-02-25T06:53:09.471Z,99910.66
2023-02-25T06:55:39.169Z,99910.50
2023-02-25T06:58:05.845Z,99925.84
2023-02-25T07:00:33.208Z,99914.63
2023-02-25T07:03:02.951Z,99920.75
2023-02-25T07:05:29.461Z,99923.44
2023-02-25T07:07:55.866Z,99928.53
2023-02-25T07:10:22.285Z,99928.94
2023-02-25T07:12:48.686Z,99938.69
2023-02-25T07:15:15.191Z,99945.03
2023-02-25T07:17:41.775Z,99946.22
2023-02-25T07:20:08.897Z,99947.03
2023-02-25T07:22:35.366Z,99947.13
2023-02-25T07:25:02.230Z,99948.66
2023-02-25T07:27:28.833Z,99958.19
2023-02-25T07:29:55.755Z,99965.53
2023-02-25T07:32:24.780Z,99958.88
2023-02-25T07:34:51.392Z,99968.38
2023-02-25T07:37:17.816Z,99973.03
2023-02-25T07:39:45.723Z,99961.97
2023-02-25T07:42:13.807Z,99968.69
2023-02-25T07:44:40.297Z,99966.31
2023-02-25T07:47:06.968Z,99966.38
2023-02-25T07:49:33.531Z,99970.22
2023-02-25T07:52:00.694Z,99964.03
2023-02-25T07:54:27.206Z,99979.03
2023-02-25T07:56:53.838Z,99978.66
2023-02-25T07:59:20.319Z,99976.25
2023-02-25T08:01:46.890Z,99978.56
2023-02-25T08:04:13.419Z,99982.16
2023-02-25T08:06:41.240Z,99985.47
2023-02-25T08:09:11.044Z,99989.84
2023-02-25T08:11:38.570Z,99989.84
2023-02-25T08:14:06.006Z,99995.16
2023-02-25T08:16:33.642Z,99994.84
2023-02-25T08:19:00.287Z,99998.06
2023-02-25T08:21:30.740Z,99994.63
2023-02-25T08:23:57.215Z,99996.34
2023-02-25T08:26:25.482Z,99994.00
2023-02-25T08:28:51.917Z,100004.34
2023-02-25T08:31:19.738Z,99994.91
2023-02-25T08:33:49.541Z,99994.50
2023-02-25T08:36:24.809Z,99993.28
2023-02-25T08:38:51.630Z,99998.56
2023-02-25T08:41:19.857Z,100002.91
2023-02-25T08:43:54.658Z,100010.03
2023-02-25T08:46:27.217Z,100019.19
2023-02-25T08:48:54.658Z,100017.91
2023-02-25T08:51:34.048Z,100020.44
2023-02-25T08:54:06.602Z,100018.78
2023-02-25T08:56:35.265Z,100033.63
2023-02-25T08:59:02.005Z,100029.63
2023-02-25T09:01:44.344Z,100037.19
2023-02-25T09:04:22.862Z,100034.03
2023-02-25T09:06:51.853Z,100031.53
2023-02-25T09:09:20.140Z,100040.22
2023-02-25T09:11:48.672Z,100044.22
2023-02-25T09:14:15.200Z,100047.69
2023-02-25T09:16:41.601Z,100038.84
2023-02-25T09:19:08.175Z,100055.59
2023-02-25T09:21:36.117Z,100047.38
2023-02-25T09:24:03.068Z,100062.91
2023-02-25T09:26:29.578Z,100070.00
2023-02-25T09:28:56.002Z,100068.84
2023-02-25T09:31:22.981Z,100072.56
2023-02-25T09:33:49.706Z,100083.03
2023-02-25T09:36:18.753Z,100089.28
2023-02-25T09:38:46.867Z,100079.03
2023-02-25T09:41:39.621Z,100088.69
2023-02-25T09:44:15.441Z,100085.38
2023-02-25T09:46:57.050Z,100091.34
2023-02-25T09:49:48.081Z,100102.66
2023-02-25T09:52:39.771Z,100099.66
2023-02-25T09:55:08.156Z,100109.34
2023-02-25T09:57:41.429Z,100113.91
2023-02-25T10:00:18.591Z,100114.38
2023-02-25T10:03:03.566Z,100119.75
2023-02-25T10:05:52.816Z,100125.59
2023-02-25T10:08:28.757Z,100125.69
2023-02-25T10:11:13.672Z,100140.50
2023-02-25T10:14:00.364Z,100137.41
2023-02-25T10:16:54.752Z,100156.78
2023-02-25T10:19:34.344Z,100147.34
2023-02-25T10:22:26.014Z,100156.69
2023-02-25T10:25:00.671Z,100165.19
2023-02-25T10:27:41.397Z,100170.34
2023-02-25T10:30:44.713Z,100177.94
2023-02-25T10:33:18.325Z,100173.72
2023-02-25T10:35:44.750Z,100176.28
2023-02-25T10:38:12.707Z,100176.97
2023-02-25T10:40:40.556Z,100169.78
2023-02-25T10:43:20.115Z,100198.19
2023-02-25T10:45:49.570Z,100187.69
2023-02-25T10:48:23.716Z,100191.91
2023-02-25T10:51:05.778Z,100198.16
2023-02-25T10:53:34.367Z,100195.97
2023-02-25T10:56:02.823Z,100204.00
2023-02-25T10:58:35.488Z,100208.00
2023-02-25T11:01:23.427Z,100206.34
2023-02-25T11:04:17.752Z,100220.66
2023-02-25T11:06:45.050Z,100226.34
2023-02-25T11:09:35.427Z,100227.25
2023-02-25T11:12:07.590Z,100224.13
2023-02-25T11:14:39.669Z,100231.84
2023-02-25T11:17:14.511Z,100225.63
2023-02-25T11:19:47.031Z,100231.97
2023-02-25T11:22:20.216Z,100225.63
2023-02-25T11:24:59.421Z,100238.34
2023-02-25T11:27:30.726Z,100235.41
2023-02-25T11:30:04.971Z,100239.50
2023-02-25T11:32:33.532Z,100247.88
2023-02-25T11:35:11.296Z,100246.22
2023-02-25T11:37:45.396Z,100247.84
2023-02-25T11:40:33.786Z,100253.00
2023-02-25T11:43:06.122Z,100258.94
2023-02-25T11:45:35.502Z,100251.00
2023-02-25T11:48:05.479Z,100261.34
2023-02-25T11:50:51.584Z,100260.22
2023-02-25T11:53:27.180Z,100276.38
2023-02-25T11:56:18.315Z,100264.19
2023-02-25T11:58:52.159Z,100267.16
2023-02-25T12:01:42.295Z,100269.47
2023-02-25T12:04:27.017Z,100278.38
2023-02-25T12:07:42.991Z,100288.13
2023-02-25T12:10:51.628Z,100291.56
2023-02-25T12:13:46.671Z,100281.75
2023-02-25T12:16:43.928Z,100288.59
2023-02-25T12:19:44.579Z,100298.50
2023-02-25T12:22:27.170Z,100303.97
2023-02-25T12:25:14.982Z,100295.53
2023-02-25T12:27:44.456Z,100303.50
2023-02-25T12:30:33.785Z,100300.56
2023-02-25T12:33:14.688Z,100301.44
2023-02-25T12:35:50.115Z,100317.84
2023-02-25T12:39:03.162Z,100314.31
2023-02-25T12:41:38.616Z,100316.63
2023-02-25T12:44:33.442Z,100319.69
2023-02-25T12:47:18.894Z,100325.63
2023-02-25T12:50:01.467Z,100325.00
2023-02-25T12:52:57.805Z,100327.69
2023-02-25T12:55:31.136Z,100341.34
2023-02-25T12:58:16.529Z,100329.16
2023-02-25T13:00:57.250Z,100334.50
2023-02-25T13:03:41.498Z,100342.50
2023-02-25T13:06:39.107Z,100335.81
2023-02-25T13:09:23.664Z,100350.06
2023-02-25T13:12:17.753Z,100345.44
2023-02-25T13:14:57.483Z,100341.22
2023-02-25T13:17:56.980Z,100353.16
2023-02-25T13:20:36.659Z,100347.69
2023-02-25T13:23:29.953Z,100355.63
2023-02-25T13:26:08.605Z,100360.31
2023-02-25T13:29:02.341Z,100366.50
2023-02-25T13:31:51.433Z,100369.66
2023-02-25T13:34:30.014Z,100370.63
2023-02-25T13:37:10.322Z,100379.72
2023-02-25T13:39:50.065Z,100379.97
2023-02-25T13:42:46.034Z,100377.03
2023-02-25T13:45:33.577Z,100379.47
2023-02-25T13:48:23.072Z,100379.16
2023-02-25T13:51:26.246Z,100383.75
2023-02-25T13:54:46.080Z,100378.22
2023-02-25T13:57:55.009Z,100384.84
2023-02-25T14:00:37.832Z,100391.41
2023-02-25T14:03:47.961Z,100384.41
2023-02-25T14:06:25.894Z,100389.56
2023-02-25T14:09:19.894Z,100394.41
2023-02-25T14:11:57.746Z,100402.88
2023-02-25T14:14:55.386Z,100411.13
2023-02-25T14:17:37.997Z,100411.28
2023-02-25T14:20:20.958Z,100415.69
2023-02-25T14:22:56.883Z,100422.97
2023-02-25T14:25:50.604Z,100424.19
2023-02-25T14:28:51.567Z,100427.88
2023-02-25T14:31:25.805Z,100435.00
2023-02-25T14:34:09.950Z,100428.97
2023-02-25T14:36:49.841Z,100442.94
2023-02-25T14:39:21.729Z,100446.69
2023-02-25T14:42:05.811Z,100454.72
2023-02-25T14:44:53.537Z,100461.63
2023-02-25T14:47:34.002Z,100452.78
2023-02-25T14:50:10.404Z,100467.50
2023-02-25T14:53:16.373Z,100476.53
2023-02-25T14:56:01.945Z,100485.47
2023-02-25T14:59:11.997Z,100487.09
2023-02-25T15:02:00.346Z,100493.41
2023-02-25T15:04:52.378Z,100497.25
2023-02-25T15:07:40.746Z,100497.03
2023-02-25T15:10:29.841Z,100501.81
2023-02-25T15:12:59.285Z,100501.56
2023-02-25T15:15:35.092Z,100509.28
2023-02-25T15:18:28.153Z,100503.19
2023-02-25T15:20:55.803Z,100519.56
2023-02-25T15:23:42.637Z,100516.88
2023-02-25T15:26:23.654Z,100530.66
2023-02-25T15:28:52.264Z,100528.59
2023-02-25T15:31:29.860Z,100540.25
2023-02-25T15:34:28.403Z,100543.97
2023-02-25T15:37:18.561Z,100546.31
2023-02-25T15:39:44.973Z,100540.00
2023-02-25T15:42:12.108Z,100555.91
2023-02-25T15:44:41.119Z,100550.28
2023-02-25T15:47:22.430Z,100553.31
2023-02-25T15:49:49.998Z,100549.31
2023-02-25T15:52:57.123Z,100550.75
2023-02-25T15:55:44.031Z,100562.97
2023-02-25T15:58:25.792Z,100560.16
2023-02-25T16:00:53.804Z,100566.44
2023-02-25T16:03:34.768Z,100565.72
2023-02-25T16:06:23.164Z,100572.25
2023-02-25T16:09:03.392Z,100576.03
2023-02-25T16:11:38.150Z,100575.44
2023-02-25T16:14:12.280Z,100574.75
2023-02-25T16:16:49.226Z,100588.03
2023-02-25T16:19:18.903Z,100583.47
2023-02-25T16:21:48.372Z,100581.81
2023-02-25T16:24:16.044Z,100591.38
2023-02-25T16:27:00.161Z,100603.97
2023-02-25T16:29:48.446Z,100602.34
2023-02-25T16:32:36.236Z,100605.75
2023-02-25T16:35:13.726Z,100608.75
2023-02-25T16:37:58.389Z,100618.59
2023-02-25T16:40:29.778Z,100617.28
2023-02-25T16:42:58.701Z,100626.88
2023-02-25T16:45:32.021Z,100629.50
2023-02-25T16:48:06.977Z,100621.28
2023-02-25T16:50:36.117Z,100630.47
2023-02-25T16:53:04.058Z,100636.84
2023-02-25T16:55:39.189Z,100636.72
2023-02-25T16:58:20.376Z,100635.38
2023-02-25T17:00:53.179Z,100644.41
2023-02-25T17:03:21.324Z,100644.25
2023-02-25T17:06:14.872Z,100643.44
2023-02-25T17:08:46.365Z,100647.13
2023-02-25T17:11:17.027Z,100643.44
2023-02-25T17:13:45.333Z,100643.13
2023-02-25T17:16:41.037Z,100645.94
2023-02-25T17:19:09.921Z,100654.50
2023-02-25T17:21:39.318Z,100662.69
2023-02-25T17:24:11.719Z,100672.13
2023-02-25T17:26:43.804Z,100672.00
2023-02-25T17:29:12.679Z,100670.44
2023-02-25T17:31:52.112Z,100675.47
2023-02-25T17:34:27.187Z,100683.78
2023-02-25T17:36:55.620Z,100691.25
2023-02-25T17:39:22.583Z,100682.88
2023-02-25T17:41:49.720Z,100690.59
2023-02-25T17:44:44.625Z,100684.66
2023-02-25T17:47:18.939Z,100701.72
2023-02-25T17:49:45.576Z,100695.72
2023-02-25T17:52:22.718Z,100692.09
2023-02-25T17:54:58.413Z,100702.19
2023-02-25T17:57:28.393Z,100703.63
2023-02-25T18:00:00.381Z,100710.25
2023-02-25T18:02:36.839Z,100714.63
2023-02-25T18:05:12.818Z,100717.31
2023-02-25T18:07:43.775Z,100722.25
2023-02-25T18:10:25.737Z,100718.78
2023-02-25T18:12:54.277Z,100725.59
2023-02-25T18:15:24.089Z,100729.88
2023-02-25T18:17:54.038Z,100745.81
2023-02-25T18:20:32.265Z,100743.03
2023-02-25T18:23:28.227Z,100741.81
2023-02-25T18:26:27.129Z,100746.34
2023-02-25T18:28:57.584Z,100751.72
2023-02-25T18:31:24.100Z,100757.06
2023-02-25T18:33:52.068Z,100753.59
2023-02-25T18:36:27.581Z,100765.09
2023-02-25T18:39:04.914Z,100773.72
2023-02-25T18:41:33.706Z,100764.28
2023-02-25T18:44:01.480Z,100765.31
2023-02-25T18:46:28.787Z,100758.94
2023-02-25T18:48:55.292Z,100768.41
2023-02-25T18:51:21.693Z,100763.25
2023-02-25T18:53:48.176Z,100762.03
2023-02-25T18:56:17.964Z,100772.75
2023-02-25T18:58:45.291Z,100769.88
2023-02-25T19:01:23.962Z,100763.88
2023-02-25T19:03:51.339Z,100775.22
2023-02-25T19:06:18.397Z,100774.38
2023-02-25T19:08:45.125Z,100778.09
2023-02-25T19:11:22.547Z,100775.00
2023-02-25T19:13:49.212Z,100783.84
2023-02-25T19:16:16.920Z,100785.47
2023-02-25T19:18:43.438Z,100776.22
2023-02-25T19:21:14.298Z,100781.38
2023-02-25T19:23:40.818Z,100780.13
2023-02-25T19:26:07.961Z,100784.88
2023-02-25T19:28:34.448Z,100786.13
2023-02-25T19:31:02.051Z,100784.47
2023-02-25T19:33:29.141Z,100786.94
2023-02-25T19:35:56.088Z,100798.66
2023-02-25T19:38:22.516Z,100794.97
2023-02-25T19:40:49.423Z,100802.78
2023-02-25T19:43:17.406Z,100809.78
2023-02-25T19:45:44.004Z,100808.13
2023-02-25T19:48:10.851Z,100815.34
2023-02-25T19:50:40.624Z,100818.00
2023-02-25T19:53:07.068Z,100823.78
2023-02-25T19:55:34.015Z,100816.78
2023-02-25T19:58:00.533Z,100819.44
2023-02-25T20:00:27.084Z,100823.97
2023-02-25T20:02:54.549Z,100828.94
2023-02-25T20:05:22.517Z,100827.69
2023-02-25T20:07:49.514Z,100832.63
2023-02-25T20:10:16.302Z,100837.34
2023-02-25T20:12:44.993Z,100846.81
2023-02-25T20:15:13.623Z,100851.75
2023-02-25T20:17:42.044Z,100857.94
2023-02-25T20:20:10.941Z,100854.81
2023-02-25T20:22:38.946Z,100860.19
2023-02-25T20:25:06.927Z,100864.28
2023-02-25T20:27:36.937Z,100857.91
2023-02-25T20:30:06.779Z,100868.81
2023-02-25T20:32:33.841Z,100864.06
2023-02-25T20:35:00.572Z,100872.72
2023-02-25T20:37:33.813Z,100874.97
2023-02-25T20:40:00.527Z,100873.94
2023-02-25T20:42:30.471Z,100880.88
2023-02-25T20:44:59.080Z,100881.09
2023-02-25T20:47:31.180Z,100879.25
2023-02-25T20:49:58.529Z,100886.63
2023-02-25T20:52:29.237Z,100888.28
2023-02-25T20:54:56.277Z,100894.22
2023-02-25T20:57:24.626Z,100900.81
2023-02-25T20:59:51.420Z,100900.66
2023-02-25T21:02:18.235Z,100901.41
2023-02-25T21:04:45.319Z,100909.19
2023-02-25T21:07:12.071Z,100903.41
2023-02-25T21:09:38.900Z,100911.47
2023-02-25T21:12:06.299Z,100915.13
2023-02-25T21:14:32.827Z,100918.19
2023-02-25T21:17:00.114Z,100928.66
2023-02-25T21:19:28.156Z,100935.44
2023-02-25T21:21:55.341Z,100931.09
2023-02-25T21:24:21.922Z,100927.19
2023-02-25T21:26:48.310Z,100932.06
2023-02-25T21:29:14.947Z,100928.16
2023-02-25T21:31:42.007Z,100935.00
2023-02-25T21:34:11.621Z,100946.88
2023-02-25T21:36:38.858Z,100947.06
2023-02-25T21:39:06.922Z,100942.50
2023-02-25T21:41:33.809Z,100949.16
2023-02-25T21:44:00.357Z,100954.38
2023-02-25T21:46:28.648Z,100956.66
2023-02-25T21:48:56.190Z,100954.66
2023-02-25T21:51:24.963Z,100956.44
2023-02-25T21:54:00.702Z,100965.06
2023-02-25T21:56:28.617Z,100961.13
2023-02-25T21:58:57.633Z,100957.19
2023-02-25T22:01:29.894Z,100968.66
2023-02-25T22:03:56.514Z,100966.06
2023-02-25T22:06:24.520Z,100965.97
2023-02-25T22:08:52.298Z,100961.06
2023-02-25T22:11:22.371Z,100971.13
2023-02-25T22:13:50.526Z,100973.59
2023-02-25T22:16:17.261Z,100974.09
2023-02-25T22:18:44.437Z,100973.41
2023-02-25T22:21:25.803Z,100981.19
2023-02-25T22:23:54.714Z,100985.06
2023-02-25T22:26:25.088Z,100983.22
2023-02-25T22:28:56.464Z,100985.47
2023-02-25T22:31:24.191Z,100980.13
2023-02-25T22:33:51.128Z,100981.31
2023-02-25T22:36:19.195Z,100986.19
2023-02-25T22:38:47.698Z,100990.53
2023-02-25T22:41:17.379Z,100991.94
2023-02-25T22:43:44.210Z,100991.00
2023-02-25T22:46:16.578Z,100998.41
2023-02-25T22:48:45.770Z,101003.50
2023-02-25T22:51:13.786Z,101002.19
2023-02-25T22:53:41.013Z,101000.72
2023-02-25T22:56:09.732Z,101007.28
2023-02-25T22:58:38.708Z,101004.03
2023-02-25T23:01:05.447Z,101013.06
2023-02-25T23:03:31.900Z,101008.47
2023-02-25T23:05:58.776Z,101015.66
2023-02-25T23:08:25.268Z,101024.97
2023-02-25T23:10:51.757Z,101029.00
2023-02-25T23:13:46.665Z,101027.16
2023-02-25T23:16:25.437Z,101026.22
2023-02-25T23:18:52.140Z,101028.13
2023-02-25T23:21:20.198Z,101023.41
2023-02-25T23:23:48.582Z,101032.94
2023-02-25T23:26:17.286Z,101040.00
2023-02-25T23:28:44.073Z,101033.66
2023-02-25T23:31:21.378Z,101049.00
2023-02-25T23:33:48.367Z,101051.03
2023-02-25T23:36:15.683Z,101049.78
2023-02-25T23:38:42.113Z,101051.53
2023-02-25T23:41:08.539Z,101055.22
2023-02-25T23:43:35.293Z,101058.38
2023-02-25T23:46:05.621Z,101069.50
2023-02-25T23:48:32.637Z,101061.03
2023-02-25T23:51:06.786Z,101068.59
2023-02-25T23:53:33.929Z,101065.59
2023-02-25T23:56:06.341Z,101068.72
2023-02-25T23:58:32.919Z,101081.78
